sensor_id;sensor_type;location;lat;lon;timestamp;temperature;humidity
16032;DHT22;8120;48.308;8.914;2023-08-08T00:01:27;11.40;74.70
16032;DHT22;8120;48.308;8.914;2023-08-08T00:03:55;11.40;74.60
16032;DHT22;8120;48.308;8.914;2023-08-08T00:06:25;11.40;74.50
16032;DHT22;8120;48.308;8.914;2023-08-08T00:08:53;11.40;74.70
16032;DHT22;8120;48.308;8.914;2023-08-08T00:11:21;11.40;74.80
16032;DHT22;8120;48.308;8.914;2023-08-08T00:13:49;11.40;74.80
16032;DHT22;8120;48.308;8.914;2023-08-08T00:16:17;11.60;74.50
16032;DHT22;8120;48.308;8.914;2023-08-08T00:18:45;11.70;73.90
16032;DHT22;8120;48.308;8.914;2023-08-08T00:21:13;11.70;73.80
16032;DHT22;8120;48.308;8.914;2023-08-08T00:23:42;11.70;74.20
16032;DHT22;8120;48.308;8.914;2023-08-08T00:26:10;11.70;74.00
16032;DHT22;8120;48.308;8.914;2023-08-08T00:28:38;11.80;73.90
16032;DHT22;8120;48.308;8.914;2023-08-08T00:31:06;11.90;73.40
16032;DHT22;8120;48.308;8.914;2023-08-08T00:33:34;11.90;73.70
16032;DHT22;8120;48.308;8.914;2023-08-08T00:36:02;11.80;73.90
16032;DHT22;8120;48.308;8.914;2023-08-08T00:38:29;11.80;74.00
16032;DHT22;8120;48.308;8.914;2023-08-08T00:40:59;11.80;74.10
16032;DHT22;8120;48.308;8.914;2023-08-08T00:43:27;11.90;74.00
16032;DHT22;8120;48.308;8.914;2023-08-08T00:45:55;11.90;74.00
16032;DHT22;8120;48.308;8.914;2023-08-08T00:48:23;11.90;73.50
16032;DHT22;8120;48.308;8.914;2023-08-08T00:50:52;12.10;72.90
16032;DHT22;8120;48.308;8.914;2023-08-08T00:53:21;12.10;72.40
16032;DHT22;8120;48.308;8.914;2023-08-08T00:55:53;12.20;72.40
16032;DHT22;8120;48.308;8.914;2023-08-08T00:58:22;12.20;72.30
16032;DHT22;8120;48.308;8.914;2023-08-08T01:00:50;12.20;72.10
16032;DHT22;8120;48.308;8.914;2023-08-08T01:03:21;12.20;72.30
16032;DHT22;8120;48.308;8.914;2023-08-08T01:05:57;12.30;72.30
16032;DHT22;8120;48.308;8.914;2023-08-08T01:08:29;12.30;72.10
16032;DHT22;8120;48.308;8.914;2023-08-08T01:11:01;12.30;72.10
16032;DHT22;8120;48.308;8.914;2023-08-08T01:13:31;12.30;72.50
16032;DHT22;8120;48.308;8.914;2023-08-08T01:16:02;12.20;72.50
16032;DHT22;8120;48.308;8.914;2023-08-08T01:18:32;12.20;72.70
16032;DHT22;8120;48.308;8.914;2023-08-08T01:21:01;12.20;72.60
16032;DHT22;8120;48.308;8.914;2023-08-08T01:23:34;12.30;72.30
16032;DHT22;8120;48.308;8.914;2023-08-08T01:26:11;12.30;72.50
16032;DHT22;8120;48.308;8.914;2023-08-08T01:28:39;12.30;72.40
16032;DHT22;8120;48.308;8.914;2023-08-08T01:31:07;12.20;72.40
16032;DHT22;8120;48.308;8.914;2023-08-08T01:33:35;12.30;72.40
16032;DHT22;8120;48.308;8.914;2023-08-08T01:36:07;12.30;72.30
16032;DHT22;8120;48.308;8.914;2023-08-08T01:38:42;12.30;72.10
16032;DHT22;8120;48.308;8.914;2023-08-08T01:41:12;12.30;72.50
16032;DHT22;8120;48.308;8.914;2023-08-08T01:43:41;12.20;72.60
16032;DHT22;8120;48.308;8.914;2023-08-08T01:46:09;12.10;73.00
16032;DHT22;8120;48.308;8.914;2023-08-08T01:48:37;12.10;72.80
16032;DHT22;8120;48.308;8.914;2023-08-08T01:51:05;12.20;72.60
16032;DHT22;8120;48.308;8.914;2023-08-08T01:53:33;12.20;72.70
16032;DHT22;8120;48.308;8.914;2023-08-08T01:56:01;12.10;72.70
16032;DHT22;8120;48.308;8.914;2023-08-08T01:58:31;12.20;72.30
16032;DHT22;8120;48.308;8.914;2023-08-08T02:00:58;12.10;72.60
16032;DHT22;8120;48.308;8.914;2023-08-08T02:03:26;12.10;72.50
16032;DHT22;8120;48.308;8.914;2023-08-08T02:05:54;12.10;72.60
16032;DHT22;8120;48.308;8.914;2023-08-08T02:08:22;12.20;72.90
16032;DHT22;8120;48.308;8.914;2023-08-08T02:10:50;12.10;72.80
16032;DHT22;8120;48.308;8.914;2023-08-08T02:13:18;12.10;73.20
16032;DHT22;8120;48.308;8.914;2023-08-08T02:15:47;12.00;73.30
16032;DHT22;8120;48.308;8.914;2023-08-08T02:18:15;12.00;73.30
16032;DHT22;8120;48.308;8.914;2023-08-08T02:20:43;12.00;73.30
16032;DHT22;8120;48.308;8.914;2023-08-08T02:23:11;12.00;72.80
16032;DHT22;8120;48.308;8.914;2023-08-08T02:25:38;12.10;73.00
16032;DHT22;8120;48.308;8.914;2023-08-08T02:28:06;12.10;72.60
16032;DHT22;8120;48.308;8.914;2023-08-08T02:30:34;12.10;72.70
16032;DHT22;8120;48.308;8.914;2023-08-08T02:33:04;12.10;72.70
16032;DHT22;8120;48.308;8.914;2023-08-08T02:35:31;12.10;72.70
16032;DHT22;8120;48.308;8.914;2023-08-08T02:37:59;12.10;73.10
16032;DHT22;8120;48.308;8.914;2023-08-08T02:40:27;12.00;73.40
16032;DHT22;8120;48.308;8.914;2023-08-08T02:42:55;12.00;73.80
16032;DHT22;8120;48.308;8.914;2023-08-08T02:45:23;12.00;73.40
16032;DHT22;8120;48.308;8.914;2023-08-08T02:47:51;12.00;73.30
16032;DHT22;8120;48.308;8.914;2023-08-08T02:50:20;12.00;73.20
16032;DHT22;8120;48.308;8.914;2023-08-08T02:52:48;12.10;72.70
16032;DHT22;8120;48.308;8.914;2023-08-08T02:55:16;12.10;72.40
16032;DHT22;8120;48.308;8.914;2023-08-08T02:57:44;12.10;72.90
16032;DHT22;8120;48.308;8.914;2023-08-08T03:00:12;12.10;72.90
16032;DHT22;8120;48.308;8.914;2023-08-08T03:02:40;12.00;73.30
16032;DHT22;8120;48.308;8.914;2023-08-08T03:05:08;12.00;73.50
16032;DHT22;8120;48.308;8.914;2023-08-08T03:07:37;12.00;73.80
16032;DHT22;8120;48.308;8.914;2023-08-08T03:10:06;11.90;74.10
16032;DHT22;8120;48.308;8.914;2023-08-08T03:12:34;11.90;74.40
16032;DHT22;8120;48.308;8.914;2023-08-08T03:15:02;11.90;74.40
16032;DHT22;8120;48.308;8.914;2023-08-08T03:17:30;11.90;74.40
16032;DHT22;8120;48.308;8.914;2023-08-08T03:19:59;11.90;74.20
16032;DHT22;8120;48.308;8.914;2023-08-08T03:22:27;12.00;73.50
16032;DHT22;8120;48.308;8.914;2023-08-08T03:24:56;12.00;73.20
16032;DHT22;8120;48.308;8.914;2023-08-08T03:27:24;12.00;73.00
16032;DHT22;8120;48.308;8.914;2023-08-08T03:29:52;12.10;72.60
16032;DHT22;8120;48.308;8.914;2023-08-08T03:32:20;12.10;72.70
16032;DHT22;8120;48.308;8.914;2023-08-08T03:34:48;12.10;72.50
16032;DHT22;8120;48.308;8.914;2023-08-08T03:37:16;12.10;72.50
16032;DHT22;8120;48.308;8.914;2023-08-08T03:39:44;12.10;72.60
16032;DHT22;8120;48.308;8.914;2023-08-08T03:42:13;12.10;72.60
16032;DHT22;8120;48.308;8.914;2023-08-08T03:44:41;12.00;72.90
16032;DHT22;8120;48.308;8.914;2023-08-08T03:47:09;12.00;72.70
16032;DHT22;8120;48.308;8.914;2023-08-08T03:49:45;12.00;72.50
16032;DHT22;8120;48.308;8.914;2023-08-08T03:52:14;12.10;72.10
16032;DHT22;8120;48.308;8.914;2023-08-08T03:54:43;12.10;72.10
16032;DHT22;8120;48.308;8.914;2023-08-08T03:57:10;12.10;72.50
16032;DHT22;8120;48.308;8.914;2023-08-08T03:59:40;12.00;72.30
16032;DHT22;8120;48.308;8.914;2023-08-08T04:02:07;12.10;72.40
16032;DHT22;8120;48.308;8.914;2023-08-08T04:04:35;12.10;72.30
16032;DHT22;8120;48.308;8.914;2023-08-08T04:07:03;12.10;72.40
16032;DHT22;8120;48.308;8.914;2023-08-08T04:09:31;12.00;72.40
16032;DHT22;8120;48.308;8.914;2023-08-08T04:11:59;12.00;72.70
16032;DHT22;8120;48.308;8.914;2023-08-08T04:14:28;12.00;72.40
16032;DHT22;8120;48.308;8.914;2023-08-08T04:16:57;12.00;72.60
16032;DHT22;8120;48.308;8.914;2023-08-08T04:19:25;12.00;72.60
16032;DHT22;8120;48.308;8.914;2023-08-08T04:21:53;11.90;72.90
16032;DHT22;8120;48.308;8.914;2023-08-08T04:24:21;11.90;73.00
16032;DHT22;8120;48.308;8.914;2023-08-08T04:26:48;11.90;72.90
16032;DHT22;8120;48.308;8.914;2023-08-08T04:29:16;11.90;72.80
16032;DHT22;8120;48.308;8.914;2023-08-08T04:31:44;11.90;72.80
16032;DHT22;8120;48.308;8.914;2023-08-08T04:34:13;11.90;72.80
16032;DHT22;8120;48.308;8.914;2023-08-08T04:36:41;12.00;72.60
16032;DHT22;8120;48.308;8.914;2023-08-08T04:39:09;12.10;72.50
16032;DHT22;8120;48.308;8.914;2023-08-08T04:41:37;12.20;71.70
16032;DHT22;8120;48.308;8.914;2023-08-08T04:44:04;12.20;71.70
16032;DHT22;8120;48.308;8.914;2023-08-08T04:46:32;12.20;71.70
16032;DHT22;8120;48.308;8.914;2023-08-08T04:49:00;12.40;71.20
16032;DHT22;8120;48.308;8.914;2023-08-08T04:51:29;12.50;70.40
16032;DHT22;8120;48.308;8.914;2023-08-08T04:53:57;12.60;70.20
16032;DHT22;8120;48.308;8.914;2023-08-08T04:56:25;12.60;69.60
16032;DHT22;8120;48.308;8.914;2023-08-08T04:58:55;12.60;69.60
16032;DHT22;8120;48.308;8.914;2023-08-08T05:01:23;12.60;69.70
16032;DHT22;8120;48.308;8.914;2023-08-08T05:03:51;12.60;69.40
16032;DHT22;8120;48.308;8.914;2023-08-08T05:06:22;12.70;69.00
16032;DHT22;8120;48.308;8.914;2023-08-08T05:08:52;13.00;68.30
16032;DHT22;8120;48.308;8.914;2023-08-08T05:11:20;13.10;67.70
16032;DHT22;8120;48.308;8.914;2023-08-08T05:13:48;13.40;66.90
16032;DHT22;8120;48.308;8.914;2023-08-08T05:16:16;13.90;66.40
16032;DHT22;8120;48.308;8.914;2023-08-08T05:18:44;13.90;65.30
16032;DHT22;8120;48.308;8.914;2023-08-08T05:21:12;14.00;64.90
16032;DHT22;8120;48.308;8.914;2023-08-08T05:23:39;13.90;65.30
16032;DHT22;8120;48.308;8.914;2023-08-08T05:26:09;14.10;65.30
16032;DHT22;8120;48.308;8.914;2023-08-08T05:28:37;14.20;64.90
16032;DHT22;8120;48.308;8.914;2023-08-08T05:31:04;14.30;64.90
16032;DHT22;8120;48.308;8.914;2023-08-08T05:33:32;14.40;64.50
16032;DHT22;8120;48.308;8.914;2023-08-08T05:36:00;14.60;64.50
16032;DHT22;8120;48.308;8.914;2023-08-08T05:38:28;14.50;64.50
16032;DHT22;8120;48.308;8.914;2023-08-08T05:40:56;14.40;64.30
16032;DHT22;8120;48.308;8.914;2023-08-08T05:43:25;14.80;63.70
16032;DHT22;8120;48.308;8.914;2023-08-08T05:45:56;15.20;63.10
16032;DHT22;8120;48.308;8.914;2023-08-08T05:48:24;15.40;62.60
16032;DHT22;8120;48.308;8.914;2023-08-08T05:50:52;15.60;61.30
16032;DHT22;8120;48.308;8.914;2023-08-08T05:53:20;15.70;60.80
16032;DHT22;8120;48.308;8.914;2023-08-08T05:55:49;15.50;62.30
16032;DHT22;8120;48.308;8.914;2023-08-08T05:58:16;15.50;62.50
16032;DHT22;8120;48.308;8.914;2023-08-08T06:00:46;15.40;62.50
16032;DHT22;8120;48.308;8.914;2023-08-08T06:03:14;15.40;62.00
16032;DHT22;8120;48.308;8.914;2023-08-08T06:05:42;15.70;61.40
16032;DHT22;8120;48.308;8.914;2023-08-08T06:08:10;16.00;60.70
16032;DHT22;8120;48.308;8.914;2023-08-08T06:10:40;16.40;59.20
16032;DHT22;8120;48.308;8.914;2023-08-08T06:13:07;16.50;59.60
16032;DHT22;8120;48.308;8.914;2023-08-08T06:15:35;16.70;58.60
16032;DHT22;8120;48.308;8.914;2023-08-08T06:18:05;16.70;58.80
16032;DHT22;8120;48.308;8.914;2023-08-08T06:20:33;16.70;58.20
16032;DHT22;8120;48.308;8.914;2023-08-08T06:23:01;16.20;59.90
16032;DHT22;8120;48.308;8.914;2023-08-08T06:25:29;17.10;57.90
16032;DHT22;8120;48.308;8.914;2023-08-08T06:27:57;17.30;57.60
16032;DHT22;8120;48.308;8.914;2023-08-08T06:30:25;17.40;57.40
16032;DHT22;8120;48.308;8.914;2023-08-08T06:32:52;17.80;56.60
16032;DHT22;8120;48.308;8.914;2023-08-08T06:35:22;17.70;56.50
16032;DHT22;8120;48.308;8.914;2023-08-08T06:37:50;18.10;55.20
16032;DHT22;8120;48.308;8.914;2023-08-08T06:40:17;17.70;56.00
16032;DHT22;8120;48.308;8.914;2023-08-08T06:42:45;17.50;56.40
16032;DHT22;8120;48.308;8.914;2023-08-08T06:45:13;17.70;56.40
16032;DHT22;8120;48.308;8.914;2023-08-08T06:47:41;17.80;55.30
16032;DHT22;8120;48.308;8.914;2023-08-08T06:50:10;18.00;55.20
16032;DHT22;8120;48.308;8.914;2023-08-08T06:52:39;18.10;55.10
16032;DHT22;8120;48.308;8.914;2023-08-08T06:55:07;17.40;56.50
16032;DHT22;8120;48.308;8.914;2023-08-08T06:57:35;17.10;57.70
16032;DHT22;8120;48.308;8.914;2023-08-08T07:00:03;17.10;57.80
16032;DHT22;8120;48.308;8.914;2023-08-08T07:02:32;17.50;57.10
16032;DHT22;8120;48.308;8.914;2023-08-08T07:05:00;17.70;56.40
16032;DHT22;8120;48.308;8.914;2023-08-08T07:07:30;17.70;55.40
16032;DHT22;8120;48.308;8.914;2023-08-08T07:10:01;17.10;57.80
16032;DHT22;8120;48.308;8.914;2023-08-08T07:12:29;16.90;57.40
16032;DHT22;8120;48.308;8.914;2023-08-08T07:14:57;17.60;57.10
16032;DHT22;8120;48.308;8.914;2023-08-08T07:17:25;17.40;56.10
16032;DHT22;8120;48.308;8.914;2023-08-08T07:19:53;17.70;56.00
16032;DHT22;8120;48.308;8.914;2023-08-08T07:22:21;17.90;55.50
16032;DHT22;8120;48.308;8.914;2023-08-08T07:24:49;17.60;55.90
16032;DHT22;8120;48.308;8.914;2023-08-08T07:27:18;17.20;56.40
16032;DHT22;8120;48.308;8.914;2023-08-08T07:29:46;17.10;57.60
16032;DHT22;8120;48.308;8.914;2023-08-08T07:32:14;17.30;56.40
16032;DHT22;8120;48.308;8.914;2023-08-08T07:34:41;17.20;57.00
16032;DHT22;8120;48.308;8.914;2023-08-08T07:37:09;17.30;56.50
16032;DHT22;8120;48.308;8.914;2023-08-08T07:39:37;18.10;55.60
16032;DHT22;8120;48.308;8.914;2023-08-08T07:42:06;18.50;54.50
16032;DHT22;8120;48.308;8.914;2023-08-08T07:44:35;18.20;55.50
16032;DHT22;8120;48.308;8.914;2023-08-08T07:47:05;18.50;54.80
16032;DHT22;8120;48.308;8.914;2023-08-08T07:49:35;19.00;54.00
16032;DHT22;8120;48.308;8.914;2023-08-08T07:52:04;19.60;52.30
16032;DHT22;8120;48.308;8.914;2023-08-08T07:54:33;19.60;53.50
16032;DHT22;8120;48.308;8.914;2023-08-08T07:57:01;19.70;50.90
16032;DHT22;8120;48.308;8.914;2023-08-08T07:59:30;19.60;51.60
16032;DHT22;8120;48.308;8.914;2023-08-08T08:01:59;20.00;50.90
16032;DHT22;8120;48.308;8.914;2023-08-08T08:04:28;20.40;50.60
16032;DHT22;8120;48.308;8.914;2023-08-08T08:06:56;20.40;49.00
16032;DHT22;8120;48.308;8.914;2023-08-08T08:09:24;19.90;51.00
16032;DHT22;8120;48.308;8.914;2023-08-08T08:11:52;20.00;51.30
16032;DHT22;8120;48.308;8.914;2023-08-08T08:14:20;20.50;49.80
16032;DHT22;8120;48.308;8.914;2023-08-08T08:16:49;19.80;51.10
16032;DHT22;8120;48.308;8.914;2023-08-08T08:19:18;19.70;49.90
16032;DHT22;8120;48.308;8.914;2023-08-08T08:21:46;20.30;50.40
16032;DHT22;8120;48.308;8.914;2023-08-08T08:24:14;19.80;50.60
16032;DHT22;8120;48.308;8.914;2023-08-08T08:26:44;20.10;49.90
16032;DHT22;8120;48.308;8.914;2023-08-08T08:29:12;19.60;51.20
16032;DHT22;8120;48.308;8.914;2023-08-08T08:31:40;19.10;51.30
16032;DHT22;8120;48.308;8.914;2023-08-08T08:34:08;19.10;52.50
16032;DHT22;8120;48.308;8.914;2023-08-08T08:36:37;19.80;50.30
16032;DHT22;8120;48.308;8.914;2023-08-08T08:39:05;19.50;51.50
16032;DHT22;8120;48.308;8.914;2023-08-08T08:41:35;19.70;50.70
16032;DHT22;8120;48.308;8.914;2023-08-08T08:44:04;19.50;50.50
16032;DHT22;8120;48.308;8.914;2023-08-08T08:46:32;19.00;52.80
16032;DHT22;8120;48.308;8.914;2023-08-08T08:49:05;19.10;53.60
16032;DHT22;8120;48.308;8.914;2023-08-08T08:51:36;18.30;54.50
16032;DHT22;8120;48.308;8.914;2023-08-08T08:54:04;18.00;54.60
16032;DHT22;8120;48.308;8.914;2023-08-08T08:56:33;18.10;54.70
16032;DHT22;8120;48.308;8.914;2023-08-08T08:59:01;18.40;53.60
16032;DHT22;8120;48.308;8.914;2023-08-08T09:01:30;18.30;52.40
16032;DHT22;8120;48.308;8.914;2023-08-08T09:03:58;18.00;53.00
16032;DHT22;8120;48.308;8.914;2023-08-08T09:06:27;18.20;53.90
16032;DHT22;8120;48.308;8.914;2023-08-08T09:08:56;19.20;53.00
16032;DHT22;8120;48.308;8.914;2023-08-08T09:11:42;20.10;49.70
16032;DHT22;8120;48.308;8.914;2023-08-08T09:14:16;19.90;50.10
16032;DHT22;8120;48.308;8.914;2023-08-08T09:16:45;19.80;50.40
16032;DHT22;8120;48.308;8.914;2023-08-08T09:19:13;19.50;49.80
16032;DHT22;8120;48.308;8.914;2023-08-08T09:21:41;19.20;50.40
16032;DHT22;8120;48.308;8.914;2023-08-08T09:24:11;19.50;50.70
16032;DHT22;8120;48.308;8.914;2023-08-08T09:26:39;20.20;49.60
16032;DHT22;8120;48.308;8.914;2023-08-08T09:29:08;20.50;46.70
16032;DHT22;8120;48.308;8.914;2023-08-08T09:31:36;20.10;48.40
16032;DHT22;8120;48.308;8.914;2023-08-08T09:34:04;20.20;47.40
16032;DHT22;8120;48.308;8.914;2023-08-08T09:36:33;19.80;47.10
16032;DHT22;8120;48.308;8.914;2023-08-08T09:39:02;19.90;48.50
16032;DHT22;8120;48.308;8.914;2023-08-08T09:41:31;20.30;47.60
16032;DHT22;8120;48.308;8.914;2023-08-08T09:43:59;20.50;46.70
16032;DHT22;8120;48.308;8.914;2023-08-08T09:46:29;20.80;46.90
16032;DHT22;8120;48.308;8.914;2023-08-08T09:48:58;20.10;47.50
16032;DHT22;8120;48.308;8.914;2023-08-08T09:51:26;20.00;47.50
16032;DHT22;8120;48.308;8.914;2023-08-08T09:53:56;20.50;47.50
16032;DHT22;8120;48.308;8.914;2023-08-08T09:56:24;20.10;47.70
16032;DHT22;8120;48.308;8.914;2023-08-08T09:58:54;20.00;48.50
16032;DHT22;8120;48.308;8.914;2023-08-08T10:01:24;20.40;48.10
16032;DHT22;8120;48.308;8.914;2023-08-08T10:03:52;20.80;47.10
16032;DHT22;8120;48.308;8.914;2023-08-08T10:06:20;21.00;48.10
16032;DHT22;8120;48.308;8.914;2023-08-08T10:08:49;20.50;47.20
16032;DHT22;8120;48.308;8.914;2023-08-08T10:11:18;20.20;47.50
16032;DHT22;8120;48.308;8.914;2023-08-08T10:13:49;20.30;47.40
16032;DHT22;8120;48.308;8.914;2023-08-08T10:16:19;19.40;48.10
16032;DHT22;8120;48.308;8.914;2023-08-08T10:18:54;20.00;47.70
16032;DHT22;8120;48.308;8.914;2023-08-08T10:21:23;20.40;46.20
16032;DHT22;8120;48.308;8.914;2023-08-08T10:24:01;20.80;47.20
16032;DHT22;8120;48.308;8.914;2023-08-08T10:26:30;21.00;46.30
16032;DHT22;8120;48.308;8.914;2023-08-08T10:29:00;21.00;46.00
16032;DHT22;8120;48.308;8.914;2023-08-08T10:31:33;20.80;45.80
16032;DHT22;8120;48.308;8.914;2023-08-08T10:34:04;20.70;46.90
16032;DHT22;8120;48.308;8.914;2023-08-08T10:36:48;20.50;46.30
16032;DHT22;8120;48.308;8.914;2023-08-08T10:39:17;20.30;46.70
16032;DHT22;8120;48.308;8.914;2023-08-08T10:41:47;20.20;46.00
16032;DHT22;8120;48.308;8.914;2023-08-08T10:44:21;20.80;45.60
16032;DHT22;8120;48.308;8.914;2023-08-08T10:46:52;20.70;45.90
16032;DHT22;8120;48.308;8.914;2023-08-08T10:49:23;21.40;44.90
16032;DHT22;8120;48.308;8.914;2023-08-08T10:51:51;21.20;44.10
16032;DHT22;8120;48.308;8.914;2023-08-08T10:54:21;20.80;44.90
16032;DHT22;8120;48.308;8.914;2023-08-08T10:56:50;20.60;44.60
16032;DHT22;8120;48.308;8.914;2023-08-08T10:59:20;20.90;44.40
16032;DHT22;8120;48.308;8.914;2023-08-08T11:01:52;20.20;46.50
16032;DHT22;8120;48.308;8.914;2023-08-08T11:04:24;20.60;45.90
16032;DHT22;8120;48.308;8.914;2023-08-08T11:06:53;20.70;46.20
16032;DHT22;8120;48.308;8.914;2023-08-08T11:09:21;20.60;46.20
16032;DHT22;8120;48.308;8.914;2023-08-08T11:11:49;21.30;45.50
16032;DHT22;8120;48.308;8.914;2023-08-08T11:14:19;21.40;43.20
16032;DHT22;8120;48.308;8.914;2023-08-08T11:16:49;21.70;43.60
16032;DHT22;8120;48.308;8.914;2023-08-08T11:19:20;22.20;43.80
16032;DHT22;8120;48.308;8.914;2023-08-08T11:21:48;21.60;44.10
16032;DHT22;8120;48.308;8.914;2023-08-08T11:24:16;20.90;44.00
16032;DHT22;8120;48.308;8.914;2023-08-08T11:26:45;21.00;44.70
16032;DHT22;8120;48.308;8.914;2023-08-08T11:29:14;21.50;43.30
16032;DHT22;8120;48.308;8.914;2023-08-08T11:31:42;21.50;44.30
16032;DHT22;8120;48.308;8.914;2023-08-08T11:34:10;21.70;45.10
16032;DHT22;8120;48.308;8.914;2023-08-08T11:36:40;20.60;46.20
16032;DHT22;8120;48.308;8.914;2023-08-08T11:39:08;19.90;45.30
16032;DHT22;8120;48.308;8.914;2023-08-08T11:41:38;19.60;46.70
16032;DHT22;8120;48.308;8.914;2023-08-08T11:44:07;19.20;47.70
16032;DHT22;8120;48.308;8.914;2023-08-08T11:46:43;19.50;47.80
16032;DHT22;8120;48.308;8.914;2023-08-08T11:49:13;19.90;47.80
16032;DHT22;8120;48.308;8.914;2023-08-08T11:51:44;20.70;46.70
16032;DHT22;8120;48.308;8.914;2023-08-08T11:54:13;21.00;46.10
16032;DHT22;8120;48.308;8.914;2023-08-08T11:56:41;21.20;45.10
16032;DHT22;8120;48.308;8.914;2023-08-08T11:59:09;21.00;45.30
16032;DHT22;8120;48.308;8.914;2023-08-08T12:01:39;21.20;45.30
16032;DHT22;8120;48.308;8.914;2023-08-08T12:04:09;21.00;43.60
16032;DHT22;8120;48.308;8.914;2023-08-08T12:06:37;20.60;44.10
16032;DHT22;8120;48.308;8.914;2023-08-08T12:09:08;21.50;42.70
16032;DHT22;8120;48.308;8.914;2023-08-08T12:11:39;21.90;42.40
16032;DHT22;8120;48.308;8.914;2023-08-08T12:14:07;22.20;42.90
16032;DHT22;8120;48.308;8.914;2023-08-08T12:16:38;22.00;42.70
16032;DHT22;8120;48.308;8.914;2023-08-08T12:19:08;21.90;42.20
16032;DHT22;8120;48.308;8.914;2023-08-08T12:21:37;21.70;43.70
16032;DHT22;8120;48.308;8.914;2023-08-08T12:24:06;21.90;44.10
16032;DHT22;8120;48.308;8.914;2023-08-08T12:26:35;22.50;44.40
16032;DHT22;8120;48.308;8.914;2023-08-08T12:29:04;22.70;41.00
16032;DHT22;8120;48.308;8.914;2023-08-08T12:31:32;22.30;42.90
16032;DHT22;8120;48.308;8.914;2023-08-08T12:34:00;22.30;42.90
16032;DHT22;8120;48.308;8.914;2023-08-08T12:36:29;22.20;41.00
16032;DHT22;8120;48.308;8.914;2023-08-08T12:38:57;21.20;43.40
16032;DHT22;8120;48.308;8.914;2023-08-08T12:41:25;20.90;42.10
16032;DHT22;8120;48.308;8.914;2023-08-08T12:43:54;20.90;43.50
16032;DHT22;8120;48.308;8.914;2023-08-08T12:46:22;21.10;43.50
16032;DHT22;8120;48.308;8.914;2023-08-08T12:48:51;21.40;44.00
16032;DHT22;8120;48.308;8.914;2023-08-08T12:51:19;21.40;43.40
16032;DHT22;8120;48.308;8.914;2023-08-08T12:53:47;21.90;42.90
16032;DHT22;8120;48.308;8.914;2023-08-08T12:56:15;21.90;42.00
16032;DHT22;8120;48.308;8.914;2023-08-08T12:58:42;21.60;43.10
16032;DHT22;8120;48.308;8.914;2023-08-08T13:01:12;22.10;41.80
16032;DHT22;8120;48.308;8.914;2023-08-08T13:03:40;21.80;42.60
16032;DHT22;8120;48.308;8.914;2023-08-08T13:06:16;21.40;43.90
16032;DHT22;8120;48.308;8.914;2023-08-08T13:08:44;21.80;44.00
16032;DHT22;8120;48.308;8.914;2023-08-08T13:11:12;22.30;41.80
16032;DHT22;8120;48.308;8.914;2023-08-08T13:13:40;22.10;42.20
16032;DHT22;8120;48.308;8.914;2023-08-08T13:16:07;22.00;42.00
16032;DHT22;8120;48.308;8.914;2023-08-08T13:18:38;21.90;43.10
16032;DHT22;8120;48.308;8.914;2023-08-08T13:21:06;22.00;42.20
16032;DHT22;8120;48.308;8.914;2023-08-08T13:23:34;22.10;41.90
16032;DHT22;8120;48.308;8.914;2023-08-08T13:26:02;22.20;41.10
16032;DHT22;8120;48.308;8.914;2023-08-08T13:28:30;22.00;41.00
16032;DHT22;8120;48.308;8.914;2023-08-08T13:30:58;21.90;41.00
16032;DHT22;8120;48.308;8.914;2023-08-08T13:33:27;21.40;41.50
16032;DHT22;8120;48.308;8.914;2023-08-08T13:35:56;21.20;42.60
16032;DHT22;8120;48.308;8.914;2023-08-08T13:38:24;21.00;42.80
16032;DHT22;8120;48.308;8.914;2023-08-08T13:40:52;20.70;43.40
16032;DHT22;8120;48.308;8.914;2023-08-08T13:43:20;20.40;44.40
16032;DHT22;8120;48.308;8.914;2023-08-08T13:45:48;20.40;45.00
16032;DHT22;8120;48.308;8.914;2023-08-08T13:48:17;20.20;45.30
16032;DHT22;8120;48.308;8.914;2023-08-08T13:50:45;20.20;45.20
16032;DHT22;8120;48.308;8.914;2023-08-08T13:53:14;20.20;46.20
16032;DHT22;8120;48.308;8.914;2023-08-08T13:55:42;20.40;46.60
16032;DHT22;8120;48.308;8.914;2023-08-08T13:58:11;20.20;46.80
16032;DHT22;8120;48.308;8.914;2023-08-08T14:00:39;20.30;47.10
16032;DHT22;8120;48.308;8.914;2023-08-08T14:03:07;20.60;47.60
16032;DHT22;8120;48.308;8.914;2023-08-08T14:05:35;20.70;46.70
16032;DHT22;8120;48.308;8.914;2023-08-08T14:08:04;20.60;48.00
16032;DHT22;8120;48.308;8.914;2023-08-08T14:10:33;20.40;47.80
16032;DHT22;8120;48.308;8.914;2023-08-08T14:13:01;20.40;47.70
16032;DHT22;8120;48.308;8.914;2023-08-08T14:15:29;20.60;48.20
16032;DHT22;8120;48.308;8.914;2023-08-08T14:17:59;20.70;47.40
16032;DHT22;8120;48.308;8.914;2023-08-08T14:20:27;20.70;47.20
16032;DHT22;8120;48.308;8.914;2023-08-08T14:22:55;20.30;46.30
16032;DHT22;8120;48.308;8.914;2023-08-08T14:25:23;20.30;47.10
16032;DHT22;8120;48.308;8.914;2023-08-08T14:27:52;20.10;47.90
16032;DHT22;8120;48.308;8.914;2023-08-08T14:30:20;20.20;48.60
16032;DHT22;8120;48.308;8.914;2023-08-08T14:32:48;20.70;47.30
16032;DHT22;8120;48.308;8.914;2023-08-08T14:35:17;20.40;48.10
16032;DHT22;8120;48.308;8.914;2023-08-08T14:37:45;20.40;47.80
16032;DHT22;8120;48.308;8.914;2023-08-08T14:40:13;20.50;48.20
16032;DHT22;8120;48.308;8.914;2023-08-08T14:42:41;20.50;48.30
16032;DHT22;8120;48.308;8.914;2023-08-08T14:45:10;20.60;48.30
16032;DHT22;8120;48.308;8.914;2023-08-08T14:47:38;20.70;48.90
16032;DHT22;8120;48.308;8.914;2023-08-08T14:50:07;20.60;47.90
16032;DHT22;8120;48.308;8.914;2023-08-08T14:52:35;20.60;48.70
16032;DHT22;8120;48.308;8.914;2023-08-08T14:55:04;20.40;48.50
16032;DHT22;8120;48.308;8.914;2023-08-08T14:57:32;20.30;49.50
16032;DHT22;8120;48.308;8.914;2023-08-08T15:00:00;20.60;47.90
16032;DHT22;8120;48.308;8.914;2023-08-08T15:02:29;20.40;48.90
16032;DHT22;8120;48.308;8.914;2023-08-08T15:04:57;20.50;47.20
16032;DHT22;8120;48.308;8.914;2023-08-08T15:07:25;20.20;47.10
16032;DHT22;8120;48.308;8.914;2023-08-08T15:09:53;20.50;47.20
16032;DHT22;8120;48.308;8.914;2023-08-08T15:12:21;20.30;48.10
16032;DHT22;8120;48.308;8.914;2023-08-08T15:14:48;19.90;48.70
16032;DHT22;8120;48.308;8.914;2023-08-08T15:17:17;20.00;48.50
16032;DHT22;8120;48.308;8.914;2023-08-08T15:19:46;20.00;48.40
16032;DHT22;8120;48.308;8.914;2023-08-08T15:22:14;20.10;48.70
16032;DHT22;8120;48.308;8.914;2023-08-08T15:24:42;20.10;48.10
16032;DHT22;8120;48.308;8.914;2023-08-08T15:27:10;20.00;48.50
16032;DHT22;8120;48.308;8.914;2023-08-08T15:29:38;20.00;49.10
16032;DHT22;8120;48.308;8.914;2023-08-08T15:32:06;20.00;49.00
16032;DHT22;8120;48.308;8.914;2023-08-08T15:34:34;20.20;49.20
16032;DHT22;8120;48.308;8.914;2023-08-08T15:37:04;20.20;48.90
16032;DHT22;8120;48.308;8.914;2023-08-08T15:39:32;20.10;49.80
16032;DHT22;8120;48.308;8.914;2023-08-08T15:42:00;20.10;50.20
16032;DHT22;8120;48.308;8.914;2023-08-08T15:44:28;20.10;49.80
16032;DHT22;8120;48.308;8.914;2023-08-08T15:46:55;19.90;50.10
16032;DHT22;8120;48.308;8.914;2023-08-08T15:49:23;20.00;50.10
16032;DHT22;8120;48.308;8.914;2023-08-08T15:51:52;20.00;49.80
16032;DHT22;8120;48.308;8.914;2023-08-08T15:54:24;19.80;49.10